マドリード/バラハス の空港の天気 - METARとTAF

マドリード・バラハス国際空港 ( LEMD / MAD ) - スペイン マドリード
飛行場実況気象(Metar)
観測時間05/28 05:30 CEST (05/28 03:30 UTC)
風向・風速南南東 1m/s
視程10km以上
天気現象
なし
気温16℃
湿度63%
気圧1026hPa
METARLEMD 280330Z 15002KT CAVOK 16/09 Q1026 NOSIG
過去の天気等 Google飛行場航空写真 Wunderground天気予報

過去48時間のMETAR

飛行場予報(TAF)
発表時間: 5/28 01:00 CEST (5/27 23:00 UTC)
予報対象時間: 28日2時 CEST ~ 29日8時 CEST
風向・風速南南東 4m/s
視程10km以上
なし
28日5時 CEST ~ 28日6時 CEST に徐々に
風向・風速北北東 4m/s
28日9時 CEST ~ 28日10時 CEST に徐々に
風向・風速東 4m/s
TAF LEMD 272300Z 2800/2906 16007KT CAVOK TX30/2816Z TN14/2805Z
BECMG 2803/2804 03007KT
BECMG 2807/2808 10008KT